Time;durP1;ratioP1;P1;durP2;ratioP2;P2;SDS_P1;SDS_P2;PMS_P1;PMS_P2;Temp;Humidity;BMP_temperature;BMP_pressure;BME280_temperature;BME280_humidity;BME280_pressure;Samples;Min_cycle;Max_cycle;Signal;HPM_P1;HPM_P2
2023/08/31 00:02:04;;;;;;;7.45;2.15;;;;;;;13.86;100.00;100826.38;5044284;28;20049;-63
2023/08/31 00:04:30;;;;;;;9.25;2.00;;;;;;;13.95;100.00;100832.13;5047089;28;20029;-60
2023/08/31 00:06:56;;;;;;;6.60;2.20;;;;;;;13.99;100.00;100833.69;5047126;28;20025;-62
2023/08/31 00:09:23;;;;;;;3.83;2.00;;;;;;;14.04;100.00;100834.34;5021306;28;20053;-64
2023/08/31 00:11:49;;;;;;;3.05;1.90;;;;;;;14.11;100.00;100830.47;5008159;28;20054;-65
2023/08/31 00:14:15;;;;;;;10.63;2.05;;;;;;;14.18;100.00;100835.47;5016181;28;20459;-64
2023/08/31 00:16:40;;;;;;;6.80;1.60;;;;;;;14.23;100.00;100834.28;5008120;28;20052;-65
2023/08/31 00:19:06;;;;;;;5.70;2.17;;;;;;;14.23;100.00;100844.03;5007241;28;20468;-66
2023/08/31 00:21:31;;;;;;;12.00;2.45;;;;;;;14.24;100.00;100832.50;5042124;28;20025;-63
2023/08/31 00:23:56;;;;;;;8.70;2.10;;;;;;;14.30;100.00;100829.53;5047399;28;20082;-66
2023/08/31 00:26:22;;;;;;;5.00;1.98;;;;;;;14.26;100.00;100830.63;5041244;28;20060;-65
2023/08/31 00:28:47;;;;;;;6.07;2.50;;;;;;;14.25;100.00;100831.56;5047894;28;20077;-65
2023/08/31 00:31:12;;;;;;;5.78;1.85;;;;;;;14.22;100.00;100826.41;5043839;28;20680;-64
2023/08/31 00:33:38;;;;;;;6.97;1.85;;;;;;;14.22;100.00;100826.41;5030634;28;20101;-66
2023/08/31 00:36:04;;;;;;;5.88;1.42;;;;;;;14.15;100.00;100826.72;5030701;28;20562;-65
2023/08/31 00:38:30;;;;;;;3.30;1.40;;;;;;;14.06;100.00;100819.22;5031858;28;20140;-65
2023/08/31 00:40:56;;;;;;;8.20;1.77;;;;;;;14.06;100.00;100813.91;5031216;28;20029;-62
2023/08/31 00:43:21;;;;;;;1.92;1.40;;;;;;;14.00;100.00;100819.53;5030880;28;20075;-61
2023/08/31 00:45:49;;;;;;;5.63;1.55;;;;;;;13.95;100.00;100821.53;5035926;28;20017;-63
2023/08/31 00:48:18;;;;;;;4.35;1.42;;;;;;;13.85;100.00;100829.09;5030135;28;20053;-65
2023/08/31 00:50:45;;;;;;;4.05;1.50;;;;;;;13.81;100.00;100824.88;5030802;28;20108;-61
2023/08/31 00:53:10;;;;;;;2.45;1.30;;;;;;;13.71;100.00;100827.94;5035323;28;20033;-66
2023/08/31 00:55:36;;;;;;;3.85;1.58;;;;;;;13.70;100.00;100823.56;5030666;28;20041;-62
2023/08/31 00:58:01;;;;;;;3.00;1.40;;;;;;;13.65;100.00;100833.53;5028770;28;20072;-64
2023/08/31 01:00:57;;;;;;;2.65;1.63;;;;;;;13.59;100.00;100826.75;5034977;28;20029;-64
2023/08/31 01:03:54;;;;;;;4.53;1.60;;;;;;;13.50;100.00;100833.31;5031000;28;20718;-58
2023/08/31 01:06:37;;;;;;;4.03;1.30;;;;;;;13.44;100.00;100824.75;5045846;28;20459;-61
2023/08/31 01:09:25;;;;;;;2.60;1.20;;;;;;;13.38;100.00;100824.13;5050323;28;20029;-64
2023/08/31 01:12:03;;;;;;;2.20;1.15;;;;;;;13.40;100.00;100832.00;5045669;28;20407;-65
2023/08/31 01:14:38;;;;;;;6.25;1.30;;;;;;;13.36;100.00;100830.41;5034726;28;20085;-65
2023/08/31 01:17:04;;;;;;;2.90;1.27;;;;;;;13.35;100.00;100824.28;5031269;28;20029;-65
2023/08/31 01:19:48;;;;;;;1.90;1.00;;;;;;;13.33;100.00;100820.00;5047752;28;20029;-66
2023/08/31 01:22:35;;;;;;;2.45;1.30;;;;;;;13.41;100.00;100823.13;5047668;28;20028;-60
2023/08/31 01:25:04;;;;;;;2.40;1.10;;;;;;;13.50;100.00;100821.88;5034426;28;20025;-62
2023/08/31 01:27:30;;;;;;;2.17;1.50;;;;;;;13.56;100.00;100833.97;5029308;28;20040;-62
2023/08/31 01:29:56;;;;;;;2.33;1.15;;;;;;;13.56;100.00;100840.13;5031790;28;20029;-64
2023/08/31 01:32:21;;;;;;;2.70;1.15;;;;;;;13.67;100.00;100852.00;5050899;28;20039;-65
2023/08/31 01:34:46;;;;;;;1.88;1.13;;;;;;;13.70;100.00;100865.09;5049781;28;20030;-59
2023/08/31 01:37:16;;;;;;;1.45;0.82;;;;;;;13.74;100.00;100872.81;5046400;28;20044;-65
2023/08/31 01:40:06;;;;;;;2.95;0.98;;;;;;;13.76;100.00;100862.16;5042667;28;20200;-61
2023/08/31 01:42:31;;;;;;;3.30;0.80;;;;;;;13.66;100.00;100868.81;5007457;28;20022;-65
2023/08/31 01:44:57;;;;;;;3.80;1.20;;;;;;;13.56;100.00;100855.13;5034085;28;20387;-63
2023/08/31 01:47:23;;;;;;;1.90;1.00;;;;;;;13.56;100.00;100849.84;5049005;28;20094;-57
2023/08/31 01:49:48;;;;;;;3.72;1.15;;;;;;;13.52;100.00;100838.56;5049639;28;20508;-60
2023/08/31 01:52:14;;;;;;;1.30;1.00;;;;;;;13.51;100.00;100839.47;5046408;28;20471;-60
2023/08/31 01:54:39;;;;;;;1.65;0.90;;;;;;;13.43;100.00;100837.16;5049575;28;20043;-66
2023/08/31 01:57:06;;;;;;;3.45;1.00;;;;;;;13.35;100.00;100832.22;5046759;28;20021;-63
2023/08/31 01:59:31;;;;;;;2.83;0.90;;;;;;;13.24;100.00;100826.53;5044785;28;20094;-66
2023/08/31 02:01:58;;;;;;;4.32;1.00;;;;;;;13.17;100.00;100830.38;5049960;28;20100;-56
2023/08/31 02:04:23;;;;;;;2.30;1.17;;;;;;;13.09;100.00;100821.00;5047838;28;20039;-61
2023/08/31 02:06:48;;;;;;;1.90;1.08;;;;;;;13.01;100.00;100825.81;5045044;28;20407;-64
2023/08/31 02:09:14;;;;;;;1.80;1.05;;;;;;;12.94;100.00;100827.00;5049521;28;20074;-65
2023/08/31 02:11:39;;;;;;;7.35;1.20;;;;;;;12.92;100.00;100829.72;5045960;28;20522;-64
2023/08/31 02:14:05;;;;;;;1.67;1.15;;;;;;;12.93;100.00;100826.13;5048195;28;20142;-66
2023/08/31 02:16:31;;;;;;;2.47;1.10;;;;;;;12.92;100.00;100819.13;5045225;28;20025;-61
2023/08/31 02:18:57;;;;;;;1.30;0.82;;;;;;;12.94;100.00;100821.72;5047384;28;20021;-60
2023/08/31 02:21:22;;;;;;;2.20;1.27;;;;;;;12.93;100.00;100826.13;5048444;28;20029;-56
2023/08/31 02:23:48;;;;;;;3.15;1.15;;;;;;;12.85;100.00;100823.81;5045964;28;20041;-61
2023/08/31 02:26:13;;;;;;;1.15;1.00;;;;;;;12.82;100.00;100831.88;5048076;28;20411;-60
2023/08/31 02:28:38;;;;;;;2.67;1.40;;;;;;;12.83;100.00;100830.09;5048755;28;20461;-61
2023/08/31 02:31:04;;;;;;;4.75;1.05;;;;;;;12.85;100.00;100829.09;5045471;28;20107;-61
2023/08/31 02:33:29;;;;;;;5.30;1.40;;;;;;;12.81;100.00;100827.53;5048235;28;20131;-58
2023/08/31 02:35:55;;;;;;;1.30;0.98;;;;;;;12.80;100.00;100827.59;5047560;28;20623;-61
2023/08/31 02:38:21;;;;;;;6.47;1.40;;;;;;;12.78;100.00;100827.66;5044025;28;20185;-63
2023/08/31 02:40:47;;;;;;;2.22;1.58;;;;;;;12.78;100.00;100825.03;5048231;28;20036;-64
2023/08/31 02:43:13;;;;;;;3.97;1.52;;;;;;;12.74;100.00;100826.09;5046779;28;20048;-64
2023/08/31 02:45:38;;;;;;;3.28;1.70;;;;;;;12.76;100.00;100826.84;5047260;28;20717;-63
2023/08/31 02:48:06;;;;;;;5.65;1.42;;;;;;;12.76;100.00;100830.38;5048796;28;20107;-64
2023/08/31 02:50:31;;;;;;;4.03;1.50;;;;;;;12.73;100.00;100835.78;5045754;28;20077;-65
2023/08/31 02:52:57;;;;;;;3.42;1.75;;;;;;;12.67;100.00;100825.47;5045629;28;20053;-63
2023/08/31 02:55:22;;;;;;;2.47;1.55;;;;;;;12.65;100.00;100822.06;5048064;28;20060;-58
2023/08/31 02:57:48;;;;;;;3.67;1.90;;;;;;;12.63;100.00;100822.13;5045273;28;20037;-65
2023/08/31 03:00:13;;;;;;;6.32;2.00;;;;;;;12.60;100.00;100819.59;5048483;28;20036;-62
2023/08/31 03:02:39;;;;;;;8.07;1.85;;;;;;;12.59;100.00;100817.91;5048077;28;20478;-64
2023/08/31 03:05:05;;;;;;;3.65;2.20;;;;;;;12.53;100.00;100818.16;5045671;28;20039;-64
2023/08/31 03:07:30;;;;;;;4.18;2.42;;;;;;;12.57;100.00;100817.09;5047491;28;20107;-63
2023/08/31 03:09:56;;;;;;;3.22;2.03;;;;;;;12.58;100.00;100817.97;5048724;28;20672;-62
2023/08/31 03:12:21;;;;;;;4.07;2.50;;;;;;;12.61;100.00;100813.38;5045349;28;20016;-61
2023/08/31 03:14:46;;;;;;;8.60;2.60;;;;;;;12.57;100.00;100813.56;5047382;28;20057;-61
2023/08/31 03:17:12;;;;;;;8.00;2.78;;;;;;;12.63;100.00;100816.84;5047949;28;20039;-62
2023/08/31 03:19:37;;;;;;;2.97;2.63;;;;;;;12.62;100.00;100817.75;5042423;28;20025;-62
2023/08/31 03:22:02;;;;;;;7.05;2.47;;;;;;;12.67;100.00;100814.91;5048031;28;20414;-63
2023/08/31 03:24:28;;;;;;;10.00;2.83;;;;;;;12.66;100.00;100815.84;5047545;28;20040;-60
2023/08/31 03:26:53;;;;;;;3.55;2.00;;;;;;;12.70;100.00;100822.69;5043625;28;20032;-63
2023/08/31 03:29:18;;;;;;;4.53;2.22;;;;;;;12.75;100.00;100827.78;5048844;28;20027;-64
2023/08/31 03:31:44;;;;;;;6.88;2.40;;;;;;;12.76;100.00;100819.78;5047379;28;20454;-63
2023/08/31 03:34:09;;;;;;;6.20;2.40;;;;;;;12.74;100.00;100818.16;5042097;28;20037;-64
2023/08/31 03:36:35;;;;;;;5.68;2.42;;;;;;;12.76;100.00;100825.09;5028358;28;20021;-64
2023/08/31 03:39:00;;;;;;;7.28;2.35;;;;;;;12.78;100.00;100817.09;5027169;28;20033;-65
2023/08/31 03:41:25;;;;;;;5.15;2.42;;;;;;;12.83;100.00;100814.25;5037875;28;20025;-66
2023/08/31 03:43:51;;;;;;;8.55;2.60;;;;;;;12.83;100.00;100817.75;5048654;28;20058;-62
2023/08/31 03:46:16;;;;;;;6.82;2.20;;;;;;;12.86;100.00;100820.25;5042727;28;20025;-65
2023/08/31 03:48:41;;;;;;;5.45;1.90;;;;;;;12.85;100.00;100829.09;5032007;28;20280;-66
2023/08/31 03:51:07;;;;;;;8.43;2.47;;;;;;;12.86;100.00;100829.97;5028627;28;20104;-62
2023/08/31 03:53:32;;;;;;;6.43;1.92;;;;;;;12.89;100.00;100824.56;5027387;28;20014;-64
2023/08/31 03:55:57;;;;;;;7.20;2.08;;;;;;;12.87;100.00;100836.97;5032900;28;20531;-65
2023/08/31 03:58:23;;;;;;;6.53;1.92;;;;;;;12.91;100.00;100832.44;5027707;28;20017;-59
2023/08/31 04:00:50;;;;;;;3.08;1.70;;;;;;;12.93;100.00;100830.56;5027877;28;20519;-65
2023/08/31 04:03:15;;;;;;;10.00;1.92;;;;;;;12.91;100.00;100832.44;5032767;28;20029;-65
2023/08/31 04:05:40;;;;;;;4.15;1.98;;;;;;;12.95;100.00;100821.66;5031094;28;20526;-66
2023/08/31 04:08:06;;;;;;;4.68;1.90;;;;;;;12.95;100.00;100834.88;5047599;28;20049;-62
2023/08/31 04:10:34;;;;;;;3.92;1.85;;;;;;;12.96;100.00;100831.28;5046159;28;20040;-63
2023/08/31 04:12:59;;;;;;;4.95;1.90;;;;;;;13.02;100.00;100830.16;5039752;28;20044;-63
2023/08/31 04:15:25;;;;;;;4.40;1.70;;;;;;;13.03;100.00;100831.88;5033134;28;20025;-62
2023/08/31 04:17:50;;;;;;;8.48;1.98;;;;;;;13.07;100.00;100838.75;5027988;28;20520;-54
2023/08/31 04:20:16;;;;;;;8.48;1.80;;;;;;;13.10;100.00;100841.25;5025715;28;20671;-65
2023/08/31 04:22:41;;;;;;;5.97;2.10;;;;;;;13.11;100.00;100847.41;5032660;28;20045;-64
2023/08/31 04:25:07;;;;;;;4.20;1.58;;;;;;;13.14;100.00;100852.56;5026773;28;20026;-66
2023/08/31 04:27:32;;;;;;;3.83;1.70;;;;;;;13.21;100.00;100853.13;5026402;28;20053;-62
2023/08/31 04:30:01;;;;;;;5.30;1.60;;;;;;;13.29;100.00;100853.66;5039128;28;20036;-65
2023/08/31 04:32:27;;;;;;;5.50;1.50;;;;;;;13.36;100.00;100859.50;5047060;28;20029;-56
2023/08/31 04:34:53;;;;;;;5.82;1.40;;;;;;;13.37;100.00;100859.44;5047313;28;20475;-61
2023/08/31 04:37:18;;;;;;;6.43;1.33;;;;;;;13.43;100.00;100860.13;5038037;28;20037;-64
2023/08/31 04:39:43;;;;;;;5.43;1.50;;;;;;;13.44;100.00;100864.47;5047374;28;20017;-65
2023/08/31 04:42:09;;;;;;;5.25;1.30;;;;;;;13.49;100.00;100862.47;5042996;28;20079;-61
2023/08/31 04:44:35;;;;;;;4.47;1.60;;;;;;;13.50;100.00;100866.88;5045415;28;20096;-62
2023/08/31 04:47:00;;;;;;;7.10;1.58;;;;;;;13.52;100.00;100867.66;5033063;28;20041;-62
2023/08/31 04:49:26;;;;;;;4.88;1.48;;;;;;;13.49;100.00;100881.00;5026699;28;20022;-64
2023/08/31 04:51:52;;;;;;;4.78;1.58;;;;;;;13.51;100.00;100874.75;5027670;28;20056;-64
2023/08/31 04:54:17;;;;;;;5.95;1.42;;;;;;;13.52;100.00;100883.56;5027038;28;20061;-64
2023/08/31 04:56:42;;;;;;;5.78;1.55;;;;;;;13.61;100.00;100884.91;5040006;28;20420;-61
2023/08/31 04:59:08;;;;;;;5.53;1.38;;;;;;;13.67;100.00;100884.63;5044941;28;20362;-64
2023/08/31 05:01:33;;;;;;;6.50;1.20;;;;;;;13.74;100.00;100879.91;5030336;28;20026;-66
2023/08/31 05:03:59;;;;;;;5.43;1.30;;;;;;;13.82;100.00;100887.50;5046964;28;20056;-65
2023/08/31 05:06:24;;;;;;;4.82;1.27;;;;;;;13.84;100.00;100891.78;5025493;28;20117;-60
2023/08/31 05:08:49;;;;;;;6.53;1.50;;;;;;;13.91;100.00;100902.97;5045073;28;20104;-65
2023/08/31 05:11:15;;;;;;;5.45;1.50;;;;;;;13.96;100.00;100922.13;5039878;28;20025;-64
2023/08/31 05:13:42;;;;;;;7.43;1.58;;;;;;;13.96;100.00;100931.84;5025044;28;20114;-57
2023/08/31 05:16:10;;;;;;;5.50;1.90;;;;;;;13.84;100.00;100917.41;5042378;28;20024;-65
2023/08/31 05:18:37;;;;;;;4.03;1.50;;;;;;;13.91;100.00;100924.16;5017031;28;20029;-58
2023/08/31 05:21:03;;;;;;;4.90;1.40;;;;;;;13.93;100.00;100919.63;5027276;28;20380;-64
2023/08/31 05:23:29;;;;;;;3.70;1.55;;;;;;;13.93;100.00;100905.53;5028120;28;20025;-64
2023/08/31 05:25:56;;;;;;;7.72;1.55;;;;;;;13.90;100.00;100912.69;5026345;28;20049;-65
2023/08/31 05:28:22;;;;;;;6.15;1.20;;;;;;;13.94;100.00;100917.84;5045540;28;20035;-66
2023/08/31 05:30:51;;;;;;;8.00;1.60;;;;;;;13.96;100.00;100922.13;5030241;28;20354;-62
2023/08/31 05:33:20;;;;;;;5.85;1.70;;;;;;;14.00;100.00;100922.84;5029350;28;20513;-64
2023/08/31 05:35:46;;;;;;;8.20;1.67;;;;;;;14.04;100.00;100932.38;5041300;28;20025;-66
2023/08/31 05:38:11;;;;;;;8.07;1.60;;;;;;;14.05;100.00;100920.00;5047935;28;20158;-65
2023/08/31 05:40:37;;;;;;;5.50;2.15;;;;;;;14.06;100.00;100925.19;5044226;28;20390;-65
2023/08/31 05:43:05;;;;;;;8.77;1.67;;;;;;;14.06;100.00;100921.69;5049386;28;20388;-65
2023/08/31 05:45:34;;;;;;;10.93;2.10;;;;;;;14.05;100.00;100934.09;5047479;28;20017;-66
2023/08/31 05:48:00;;;;;;;6.57;1.70;;;;;;;14.07;100.00;100934.88;5043611;28;20021;-59
2023/08/31 05:50:26;;;;;;;10.07;1.80;;;;;;;14.03;100.00;100943.91;5028840;28;20384;-63
2023/08/31 05:52:51;;;;;;;6.50;1.77;;;;;;;14.10;100.00;100942.69;5027501;28;20472;-66
2023/08/31 05:55:17;;;;;;;9.43;2.83;;;;;;;14.07;100.00;100944.59;5035757;28;20036;-58
2023/08/31 05:57:42;;;;;;;10.23;2.42;;;;;;;14.12;100.00;100943.44;5032223;28;20512;-65
2023/08/31 06:00:08;;;;;;;7.40;1.95;;;;;;;14.19;100.00;100935.22;5022958;28;20069;-67
2023/08/31 06:02:33;;;;;;;9.60;1.73;;;;;;;14.21;100.00;100936.03;5008798;28;20030;-67
2023/08/31 06:04:59;;;;;;;6.32;1.80;;;;;;;14.27;100.00;100943.69;5021136;28;20041;-64
2023/08/31 06:07:24;;;;;;;2.72;1.27;;;;;;;14.30;100.00;100943.50;5008202;28;20581;-66
2023/08/31 06:09:49;;;;;;;6.22;1.60;;;;;;;14.30;100.00;100951.44;5007890;28;20052;-65
2023/08/31 06:12:15;;;;;;;7.78;2.00;;;;;;;14.37;100.00;100941.44;5021132;28;20388;-62
2023/08/31 06:14:40;;;;;;;7.07;1.92;;;;;;;14.35;100.00;100936.19;5015434;28;20046;-65
2023/08/31 06:17:05;;;;;;;10.95;2.28;;;;;;;14.40;100.00;100943.94;5021242;28;20368;-67
2023/08/31 06:19:31;;;;;;;8.48;2.22;;;;;;;14.42;100.00;100938.56;5007670;28;20389;-66
2023/08/31 06:21:56;;;;;;;9.75;2.22;;;;;;;14.48;100.00;100938.25;5008270;28;20073;-67
2023/08/31 06:24:21;;;;;;;7.72;1.92;;;;;;;14.44;100.00;100944.63;5026840;28;20025;-67
2023/08/31 06:26:47;;;;;;;5.57;1.75;;;;;;;14.49;100.00;100942.63;5027297;28;20679;-67
2023/08/31 06:29:12;;;;;;;7.95;2.08;;;;;;;14.49;100.00;100942.63;5028029;28;20495;-63
2023/08/31 06:31:37;;;;;;;8.52;1.58;;;;;;;14.56;100.00;100946.69;5027567;28;20557;-65
2023/08/31 06:34:04;;;;;;;4.57;1.75;;;;;;;14.56;100.00;100957.28;5018419;28;20440;-66
2023/08/31 06:36:29;;;;;;;6.07;1.63;;;;;;;14.72;100.00;100960.03;5023397;28;20116;-60
2023/08/31 06:38:55;;;;;;;5.32;1.63;;;;;;;14.76;100.00;100958.09;5028109;28;20141;-59
2023/08/31 06:41:20;;;;;;;3.38;1.40;;;;;;;14.85;100.00;100956.81;5027183;28;20043;-63
2023/08/31 06:43:45;;;;;;;5.75;1.42;;;;;;;14.91;100.00;100965.31;5032879;28;20030;-65
2023/08/31 06:46:11;;;;;;;3.38;1.35;;;;;;;14.97;100.00;100961.53;5027382;28;20021;-66
2023/08/31 06:48:36;;;;;;;6.45;1.05;;;;;;;15.01;100.00;100962.22;5027927;28;20443;-60
2023/08/31 06:51:03;;;;;;;4.28;1.20;;;;;;;15.08;100.00;100968.91;5036389;28;20040;-65
2023/08/31 06:53:29;;;;;;;3.85;1.55;;;;;;;15.13;100.00;100976.66;5030105;28;20550;-65
2023/08/31 06:55:54;;;;;;;3.78;1.10;;;;;;;15.13;100.00;100972.22;5032205;28;20069;-63
2023/08/31 06:58:20;;;;;;;9.13;1.55;;;;;;;15.09;100.00;100970.66;5022178;28;20690;-67
2023/08/31 07:00:45;;;;;;;8.50;1.42;;;;;;;15.07;100.00;100974.28;5023305;28;20026;-64
2023/08/31 07:03:11;;;;;;;5.82;1.40;;;;;;;15.05;100.00;100979.69;5026609;28;20029;-66
2023/08/31 07:05:41;;;;;;;2.78;1.33;;;;;;;15.05;100.00;100973.53;5027863;28;20029;-66
2023/08/31 07:08:06;;;;;;;6.03;1.23;;;;;;;15.01;100.00;100979.00;5028435;28;20498;-67
2023/08/31 07:10:32;;;;;;;5.90;1.48;;;;;;;15.09;100.00;100986.56;5014007;28;20021;-67
2023/08/31 07:12:57;;;;;;;5.53;1.30;;;;;;;15.14;100.00;100983.69;5020788;28;20465;-58
2023/08/31 07:15:23;;;;;;;2.42;1.13;;;;;;;15.25;100.00;100978.69;5022289;28;20468;-64
2023/08/31 07:17:48;;;;;;;4.93;1.33;;;;;;;15.35;100.00;100980.88;5008354;28;20476;-67
2023/08/31 07:20:13;;;;;;;3.35;1.08;;;;;;;15.47;100.00;100982.03;5018542;28;20084;-60
2023/08/31 07:22:40;;;;;;;3.50;1.20;;;;;;;15.64;100.00;100986.44;5012449;28;20076;-63
2023/08/31 07:25:07;;;;;;;7.55;1.27;;;;;;;15.73;100.00;100985.06;5036051;28;20025;-67
2023/08/31 07:27:32;;;;;;;3.80;1.10;;;;;;;15.90;100.00;100990.34;5026774;28;20032;-62
2023/08/31 07:29:57;;;;;;;5.75;1.30;;;;;;;16.06;100.00;100992.19;5022441;28;20297;-63
2023/08/31 07:32:23;;;;;;;6.97;1.45;;;;;;;16.18;100.00;100995.97;5026534;28;20029;-61
2023/08/31 07:34:48;;;;;;;3.60;1.10;;;;;;;16.29;100.00;100998.06;5027204;28;20060;-65
2023/08/31 07:37:14;;;;;;;2.40;1.10;;;;;;;16.29;100.00;100990.09;5026764;28;20429;-64
2023/08/31 07:39:40;;;;;;;5.35;1.02;;;;;;;16.41;100.00;100994.69;5026244;28;20148;-63
2023/08/31 07:42:05;;;;;;;3.25;1.00;;;;;;;16.54;100.00;100999.31;5026819;28;20021;-67
2023/08/31 07:44:31;;;;;;;5.95;1.17;;;;;;;16.68;100.00;101003.88;5025150;28;20033;-65
2023/08/31 07:46:56;;;;;;;3.38;1.10;;;;;;;16.66;100.00;101017.25;5026869;28;20364;-64
2023/08/31 07:49:21;;;;;;;5.88;1.13;;;;;;;16.72;100.00;101004.53;5025704;28;20017;-66
2023/08/31 07:51:47;;;;;;;2.40;0.98;;;;;;;16.87;100.00;101008.97;5027066;28;20017;-67
2023/08/31 07:54:19;;;;;;;3.25;0.90;;;;;;;16.90;100.00;101007.94;5026385;28;20399;-64
2023/08/31 07:56:45;;;;;;;1.23;0.82;;;;;;;16.93;100.00;101010.44;5026598;28;20021;-64
2023/08/31 07:59:10;;;;;;;4.72;1.20;;;;;;;17.00;100.00;101014.44;5026746;28;20099;-65
2023/08/31 08:01:36;;;;;;;5.15;1.00;;;;;;;17.12;100.00;101014.69;5024280;28;20472;-66
2023/08/31 08:04:01;;;;;;;3.70;1.08;;;;;;;17.14;100.00;101011.00;5021913;28;20024;-63
2023/08/31 08:06:27;;;;;;;3.55;1.10;;;;;;;17.10;100.00;101033.41;5026358;28;20057;-65
2023/08/31 08:08:52;;;;;;;2.95;1.08;;;;;;;17.23;100.00;101025.59;5026480;28;20460;-62
2023/08/31 08:11:18;;;;;;;3.40;1.20;;;;;;;17.28;100.00;101027.97;5025847;28;20018;-64
2023/08/31 08:13:43;;;;;;;6.32;1.00;;;;;;;17.45;100.00;101028.78;5026013;28;20052;-66
2023/08/31 08:16:08;;;;;;;6.18;1.20;;;;;;;17.50;100.00;101030.22;5025082;28;20100;-62
2023/08/31 08:18:34;;;;;;;3.88;1.10;;;;;;;17.57;100.00;101048.50;5026091;28;20037;-65
2023/08/31 08:20:59;;;;;;;2.88;1.35;;;;;;;17.57;99.73;101033.34;5026473;28;20583;-64
2023/08/31 08:23:25;;;;;;;3.55;1.17;;;;;;;17.73;97.95;101038.59;5024840;28;20121;-63
2023/08/31 08:25:50;;;;;;;6.45;1.40;;;;;;;17.70;94.96;101036.09;5024600;28;20049;-64
2023/08/31 08:28:15;;;;;;;3.45;1.17;;;;;;;17.80;96.48;101047.94;5026268;28;20546;-60
2023/08/31 08:30:41;;;;;;;6.80;0.90;;;;;;;17.93;97.51;101049.84;5026168;28;20025;-63
2023/08/31 08:33:07;;;;;;;1.73;1.02;;;;;;;18.02;94.94;101040.41;5012756;28;20048;-66
2023/08/31 08:35:33;;;;;;;3.50;1.10;;;;;;;18.03;97.82;101052.81;5026276;28;20029;-62
2023/08/31 08:37:59;;;;;;;1.92;0.93;;;;;;;18.12;93.54;101044.25;5026151;28;20018;-63
2023/08/31 08:40:24;;;;;;;4.32;1.17;;;;;;;18.23;93.85;101048.03;5025544;28;20036;-65
2023/08/31 08:42:53;;;;;;;3.47;1.00;;;;;;;18.18;91.15;101043.84;5026502;28;20022;-64
2023/08/31 08:45:20;;;;;;;5.97;1.10;;;;;;;18.18;91.01;101069.66;5026897;28;20108;-66
2023/08/31 08:47:46;;;;;;;2.58;0.88;;;;;;;18.22;88.54;101070.34;5024147;28;20091;-63
2023/08/31 08:50:12;;;;;;;4.25;1.33;;;;;;;18.28;87.93;101064.63;5018226;28;20030;-65
2023/08/31 08:52:41;;;;;;;4.05;1.30;;;;;;;18.35;88.95;101057.94;5019417;28;20503;-65
2023/08/31 08:55:08;;;;;;;3.85;1.08;;;;;;;18.32;88.15;101055.47;5005249;28;20030;-65
2023/08/31 08:57:34;;;;;;;2.33;0.70;;;;;;;18.33;87.39;101067.00;5008644;28;20125;-63
2023/08/31 08:59:59;;;;;;;2.22;1.23;;;;;;;18.24;90.21;101063.09;5010331;28;20041;-66
2023/08/31 09:02:25;;;;;;;5.47;1.20;;;;;;;18.27;92.39;101063.75;5011367;28;20049;-61
2023/08/31 09:04:54;;;;;;;7.07;1.70;;;;;;;18.40;91.71;101069.19;5029113;28;20030;-64
2023/08/31 09:07:23;;;;;;;4.50;1.17;;;;;;;18.50;87.64;101084.59;5030078;28;20573;-67
2023/08/31 09:09:53;;;;;;;2.60;0.93;;;;;;;18.54;88.40;101070.09;5027768;28;20025;-64
2023/08/31 09:12:19;;;;;;;3.90;1.05;;;;;;;18.49;86.08;101088.22;5020812;28;20543;-62
2023/08/31 09:15:04;;;;;;;3.60;1.05;;;;;;;18.50;85.50;101081.91;5046485;28;20139;-64
2023/08/31 09:17:41;;;;;;;4.72;1.30;;;;;;;18.48;85.35;101070.50;5048561;28;20075;-66
2023/08/31 09:20:08;;;;;;;5.10;1.00;;;;;;;18.47;83.00;101072.31;5049320;28;20364;-63
2023/08/31 09:22:35;;;;;;;3.58;1.13;;;;;;;18.58;80.78;101076.09;5045559;28;20128;-62
2023/08/31 09:25:00;;;;;;;4.82;0.90;;;;;;;18.72;82.39;101084.06;5048334;28;20037;-60
2023/08/31 09:27:26;;;;;;;3.22;1.00;;;;;;;18.68;81.19;101087.88;5048218;28;20028;-67
2023/08/31 09:29:54;;;;;;;2.47;1.10;;;;;;;18.73;81.71;101090.25;5046812;28;20025;-65
2023/08/31 09:32:20;;;;;;;2.40;1.02;;;;;;;18.77;79.54;101089.09;5049021;28;20048;-64
2023/08/31 09:34:45;;;;;;;3.80;1.33;;;;;;;18.77;79.37;101102.44;5047895;28;20033;-64
2023/08/31 09:37:11;;;;;;;3.83;1.23;;;;;;;18.79;78.30;101097.88;5047803;28;20471;-59
2023/08/31 09:39:37;;;;;;;2.60;0.85;;;;;;;18.71;80.07;101092.16;5044675;28;20029;-66
2023/08/31 09:42:03;;;;;;;3.65;0.80;;;;;;;18.64;79.59;101089.91;5048221;28;20097;-66
2023/08/31 09:44:28;;;;;;;2.92;0.80;;;;;;;18.81;81.48;101085.28;5047565;28;20028;-57
2023/08/31 09:46:54;;;;;;;2.50;1.00;;;;;;;19.02;79.03;101092.84;5030316;28;20034;-67
2023/08/31 09:49:20;;;;;;;2.65;1.05;;;;;;;19.10;78.27;101103.91;5045241;28;20538;-59
2023/08/31 09:51:47;;;;;;;2.00;1.00;;;;;;;19.25;78.03;101095.81;5042281;28;20515;-63
2023/08/31 09:54:15;;;;;;;6.32;1.55;;;;;;;19.37;78.40;101103.03;5024216;28;20037;-67
2023/08/31 09:56:45;;;;;;;5.00;1.25;;;;;;;19.46;76.10;101104.22;5027885;28;20350;-65
2023/08/31 09:59:12;;;;;;;3.47;0.93;;;;;;;19.49;78.92;101113.84;5038767;28;20025;-64
2023/08/31 10:01:38;;;;;;;9.15;1.58;;;;;;;19.54;80.07;101093.84;5036239;28;20098;-63
2023/08/31 10:04:06;;;;;;;5.50;1.10;;;;;;;19.52;75.84;101098.47;5025632;28;20125;-63
2023/08/31 10:06:32;;;;;;;2.92;0.82;;;;;;;19.53;77.18;101099.28;5039786;28;20214;-66
2023/08/31 10:08:57;;;;;;;4.95;1.13;;;;;;;19.37;78.15;101105.69;5032543;28;20033;-65
2023/08/31 10:11:25;;;;;;;4.47;1.30;;;;;;;19.25;76.25;101111.84;5026852;28;20108;-62
2023/08/31 10:13:51;;;;;;;1.40;0.82;;;;;;;19.14;78.77;101099.22;5027502;28;20049;-65
2023/08/31 10:16:19;;;;;;;1.88;1.00;;;;;;;19.00;75.62;101108.97;5046674;28;20116;-61
2023/08/31 10:18:44;;;;;;;3.13;0.98;;;;;;;19.17;75.18;101105.22;5029104;28;20037;-64
2023/08/31 10:21:09;;;;;;;2.92;0.80;;;;;;;19.24;75.57;101104.81;5027148;28;20167;-61
2023/08/31 10:23:35;;;;;;;2.97;1.08;;;;;;;19.24;78.13;101115.50;5035902;28;20712;-66
2023/08/31 10:26:03;;;;;;;4.45;1.10;;;;;;;19.32;76.67;101107.81;5047730;28;20036;-66
2023/08/31 10:28:29;;;;;;;2.47;0.95;;;;;;;19.41;74.60;101107.19;5047552;28;20021;-66
2023/08/31 10:31:05;;;;;;;4.07;1.10;;;;;;;19.51;75.56;101101.25;5043545;28;20406;-67
2023/08/31 10:33:41;;;;;;;5.97;1.23;;;;;;;19.78;73.42;101117.19;5044539;28;20399;-63
2023/08/31 10:36:12;;;;;;;3.70;1.00;;;;;;;19.91;71.33;101106.53;5046894;28;20510;-66
2023/08/31 10:38:37;;;;;;;3.85;1.10;;;;;;;19.86;71.56;101105.97;5045943;28;20111;-61
2023/08/31 10:41:05;;;;;;;4.53;1.00;;;;;;;19.78;69.15;101113.69;5045345;28;20107;-61
2023/08/31 10:43:47;;;;;;;4.63;1.13;;;;;;;19.48;68.26;101114.81;5033899;28;20096;-62
2023/08/31 10:46:32;;;;;;;2.47;1.00;;;;;;;19.53;66.79;101115.34;5027290;28;20115;-66
2023/08/31 10:49:00;;;;;;;2.45;1.10;;;;;;;19.72;68.54;101098.06;5027429;28;20017;-64
2023/08/31 10:51:31;;;;;;;3.92;1.00;;;;;;;19.65;68.29;101110.97;5035133;28;20028;-57
2023/08/31 10:54:25;;;;;;;3.08;0.98;;;;;;;19.70;66.15;101117.75;5045784;28;20032;-62
2023/08/31 10:57:06;;;;;;;2.97;1.20;;;;;;;19.72;67.53;101108.75;5046821;28;20052;-60
2023/08/31 10:59:46;;;;;;;4.32;0.90;;;;;;;19.90;65.65;101115.47;5042626;28;20367;-67
2023/08/31 11:02:42;;;;;;;3.80;1.30;;;;;;;20.01;64.04;101105.88;5046008;28;20025;-66
2023/08/31 11:05:17;;;;;;;4.18;1.00;;;;;;;20.08;61.42;101120.56;5045760;28;20762;-60
2023/08/31 11:07:43;;;;;;;3.33;0.90;;;;;;;20.25;61.67;101114.00;5046607;28;20597;-65
2023/08/31 11:10:18;;;;;;;3.17;1.10;;;;;;;20.42;60.20;101107.47;5041396;28;20096;-59
2023/08/31 11:12:48;;;;;;;2.22;0.93;;;;;;;20.59;59.58;101102.72;5045177;28;20083;-63
2023/08/31 11:15:17;;;;;;;2.30;0.98;;;;;;;20.60;58.19;101117.81;5076364;28;20045;-63
2023/08/31 11:17:43;;;;;;;;;;;;;;;21.03;56.38;101102.25;5040476;28;20036;-62
2023/08/31 11:20:13;;;;;;;6.55;1.20;;;;;;;21.34;57.93;101108.84;5044763;28;19917;-64